Time;durP1;ratioP1;P1;durP2;ratioP2;P2;SDS_P1;SDS_P2;PMS_P1;PMS_P2;Temp;Humidity;BMP_temperature;BMP_pressure;BME280_temperature;BME280_humidity;BME280_pressure;Samples;Min_cycle;Max_cycle;Signal;HPM_P1;HPM_P2
2022/05/03 00:01:22;;;;;;;5.50;4.10;;;16.10;67.80;;;;;;5034596;28;20030;-65
2022/05/03 00:04:20;;;;;;;8.02;4.28;;;16.00;67.80;;;;;;5034640;28;20033;-67
2022/05/03 00:07:13;;;;;;;6.72;4.38;;;16.10;67.90;;;;;;5029050;28;20040;-65
2022/05/03 00:09:54;;;;;;;5.55;4.50;;;16.00;69.10;;;;;;5033227;28;20026;-65
2022/05/03 00:12:34;;;;;;;5.95;3.75;;;15.90;69.60;;;;;;5034821;28;20026;-65
2022/05/03 00:15:03;;;;;;;6.07;4.03;;;15.90;69.70;;;;;;5034615;28;20172;-65
2022/05/03 00:17:30;;;;;;;7.50;4.00;;;15.80;69.30;;;;;;5034054;28;20061;-67
2022/05/03 00:19:56;;;;;;;4.90;3.40;;;15.70;69.60;;;;;;5034200;28;20063;-64
2022/05/03 00:22:23;;;;;;;7.05;4.43;;;15.70;69.50;;;;;;5040171;28;20051;-67
2022/05/03 00:24:54;;;;;;;6.43;3.92;;;15.70;69.60;;;;;;5054291;28;20037;-67
2022/05/03 00:27:26;;;;;;;5.20;4.00;;;15.80;69.60;;;;;;5054038;28;20112;-64
2022/05/03 00:29:57;;;;;;;6.75;4.03;;;15.80;69.50;;;;;;5054355;28;20037;-64
2022/05/03 00:32:26;;;;;;;4.63;3.67;;;15.80;70.40;;;;;;5054169;28;20112;-65
2022/05/03 00:34:52;;;;;;;6.60;3.85;;;15.80;70.20;;;;;;5054320;28;20044;-64
2022/05/03 00:37:19;;;;;;;8.18;4.00;;;15.80;69.60;;;;;;5054216;28;20474;-65
2022/05/03 00:39:45;;;;;;;8.25;3.92;;;15.80;69.30;;;;;;5053861;28;20037;-65
2022/05/03 00:42:19;;;;;;;7.95;3.85;;;15.80;69.30;;;;;;5053251;28;20136;-64
2022/05/03 00:45:23;;;;;;;9.82;4.13;;;15.80;69.60;;;;;;5054065;28;20489;-65
2022/05/03 00:47:58;;;;;;;7.32;3.65;;;15.90;69.80;;;;;;5053681;28;20033;-67
2022/05/03 00:50:36;;;;;;;7.47;3.60;;;15.90;69.20;;;;;;5053818;28;20080;-65
2022/05/03 00:53:30;;;;;;;11.00;3.70;;;15.90;69.50;;;;;;5053638;28;20032;-65
2022/05/03 00:56:48;;;;;;;9.07;3.55;;;15.90;69.80;;;;;;5054142;28;20159;-65
2022/05/03 00:59:31;;;;;;;7.18;3.63;;;15.90;69.90;;;;;;5037480;28;20056;-67
2022/05/03 01:02:06;;;;;;;7.70;3.50;;;15.80;70.40;;;;;;5050759;28;20104;-65
2022/05/03 01:04:53;;;;;;;6.00;3.47;;;15.80;70.70;;;;;;5051448;28;20041;-66
2022/05/03 01:07:33;;;;;;;6.47;3.53;;;15.80;71.40;;;;;;5053162;28;20037;-65
2022/05/03 01:10:35;;;;;;;4.50;3.95;;;15.80;70.70;;;;;;5053084;28;20052;-66
2022/05/03 01:13:04;;;;;;;5.38;3.58;;;15.80;70.50;;;;;;5031152;28;20033;-65
2022/05/03 01:15:32;;;;;;;7.85;3.65;;;15.70;71.40;;;;;;5053128;28;20033;-65
2022/05/03 01:18:16;;;;;;;4.90;3.67;;;15.70;71.50;;;;;;5053028;28;20154;-67
2022/05/03 01:21:12;;;;;;;5.45;3.40;;;15.70;72.00;;;;;;5053031;28;20037;-65
2022/05/03 01:24:05;;;;;;;12.30;4.07;;;15.70;71.50;;;;;;5031356;28;20795;-66
2022/05/03 01:26:58;;;;;;;7.15;3.58;;;15.70;72.00;;;;;;5053125;28;20044;-65
2022/05/03 01:29:31;;;;;;;4.38;3.53;;;15.70;71.80;;;;;;5052653;28;20500;-65
2022/05/03 01:32:01;;;;;;;;;;;15.70;72.10;;;;;;5053432;28;20474;-65
2022/05/03 01:34:29;;;;;;;7.22;4.35;;;15.70;72.30;;;;;;5053010;28;19947;-65
2022/05/03 01:37:01;;;;;;;4.93;3.67;;;15.80;72.00;;;;;;5052954;28;20069;-64
2022/05/03 01:39:47;;;;;;;4.68;3.30;;;15.80;71.60;;;;;;5052984;28;20076;-65
2022/05/03 01:42:50;;;;;;;4.07;3.45;;;15.80;71.20;;;;;;5035819;28;20064;-65
2022/05/03 01:45:32;;;;;;;4.03;3.47;;;15.80;71.30;;;;;;5052689;28;20112;-65
2022/05/03 01:48:13;;;;;;;7.00;3.95;;;15.70;71.30;;;;;;5052730;28;20043;-65
2022/05/03 01:50:49;;;;;;;6.18;3.35;;;15.70;71.30;;;;;;5052780;28;20044;-65
2022/05/03 01:53:36;;;;;;;4.70;3.47;;;15.80;71.40;;;;;;5052748;28;20037;-64
2022/05/03 01:56:33;;;;;;;9.55;3.67;;;15.80;71.30;;;;;;5052589;28;20036;-64
2022/05/03 01:59:30;;;;;;;6.00;4.13;;;15.80;71.00;;;;;;5052759;28;20106;-64
2022/05/03 02:02:19;;;;;;;9.35;4.10;;;15.80;71.20;;;;;;5053039;28;20036;-64
2022/05/03 02:04:57;;;;;;;7.68;3.88;;;15.80;71.40;;;;;;5006177;28;20087;-64
2022/05/03 02:07:42;;;;;;;4.88;3.38;;;15.80;72.20;;;;;;5053065;28;20475;-64
2022/05/03 02:10:22;;;;;;;7.07;3.70;;;15.70;72.60;;;;;;5052928;28;20037;-63
2022/05/03 02:12:54;;;;;;;7.22;4.07;;;15.70;72.80;;;;;;5053053;28;20098;-66
2022/05/03 02:15:39;;;;;;;8.73;3.70;;;15.60;73.20;;;;;;5052296;28;20040;-66
2022/05/03 02:18:14;;;;;;;5.72;3.55;;;15.60;73.10;;;;;;5052337;28;20041;-65
2022/05/03 02:21:17;;;;;;;7.47;4.07;;;15.60;72.70;;;;;;5052639;28;20033;-66
2022/05/03 02:24:02;;;;;;;;;;;15.50;73.40;;;;;;5053190;28;20103;-65
2022/05/03 02:26:34;;;;;;;7.05;3.58;;;15.50;73.70;;;;;;5052527;28;19940;-66
2022/05/03 02:29:15;;;;;;;4.80;3.60;;;15.50;73.60;;;;;;5052453;28;20473;-66
2022/05/03 02:31:48;;;;;;;9.38;4.20;;;15.50;73.20;;;;;;5051827;28;20025;-66
2022/05/03 02:34:36;;;;;;;;;;;15.50;72.90;;;;;;5052973;28;20037;-68
2022/05/03 02:37:17;;;;;;;6.43;3.78;;;15.50;72.90;;;;;;5041353;28;19911;-66
2022/05/03 02:40:07;;;;;;;9.27;3.90;;;15.50;73.80;;;;;;5052608;28;20045;-66
2022/05/03 02:42:34;;;;;;;9.45;3.58;;;15.50;74.50;;;;;;5038305;28;20179;-67
2022/05/03 02:45:02;;;;;;;5.72;3.78;;;15.40;75.10;;;;;;5052403;28;20488;-67
2022/05/03 02:47:44;;;;;;;6.30;3.53;;;15.50;74.90;;;;;;5052406;28;20029;-64
2022/05/03 02:50:24;;;;;;;7.25;3.47;;;15.50;74.50;;;;;;5052213;28;20036;-68
2022/05/03 02:53:03;;;;;;;5.57;3.45;;;15.50;75.30;;;;;;5052344;28;20424;-68
2022/05/03 02:55:34;;;;;;;5.40;3.58;;;15.50;75.10;;;;;;5052339;28;20373;-69
2022/05/03 02:58:10;;;;;;;4.88;3.30;;;15.40;75.60;;;;;;5052215;28;20048;-66
2022/05/03 03:04:01;;;;;;;6.00;3.72;;;15.50;75.30;;;;;;5052528;28;20456;-67
2022/05/03 03:06:36;;;;;;;6.05;3.63;;;15.40;75.50;;;;;;5054150;28;20044;-66
2022/05/03 03:09:03;;;;;;;6.95;3.58;;;15.40;75.30;;;;;;5055735;28;20098;-69
2022/05/03 03:11:53;;;;;;;5.43;3.47;;;15.40;75.20;;;;;;5055808;28;20036;-64
2022/05/03 03:14:34;;;;;;;5.15;3.70;;;15.40;75.90;;;;;;5055692;28;20040;-65
2022/05/03 03:17:10;;;;;;;6.65;3.40;;;15.40;75.60;;;;;;5055382;28;20037;-66
2022/05/03 03:20:05;;;;;;;5.60;3.38;;;15.40;75.50;;;;;;5055318;28;20064;-65
2022/05/03 03:22:37;;;;;;;4.60;3.20;;;15.30;75.70;;;;;;5055526;28;20053;-67
2022/05/03 03:25:04;;;;;;;7.32;3.95;;;15.40;75.20;;;;;;5055452;28;20041;-66
2022/05/03 03:27:32;;;;;;;5.97;3.40;;;15.40;75.10;;;;;;5055246;28;20040;-66
2022/05/03 03:30:00;;;;;;;5.13;3.50;;;15.40;75.60;;;;;;5055306;28;20371;-66
2022/05/03 03:32:27;;;;;;;5.90;3.20;;;15.40;75.90;;;;;;5055449;28;20033;-69
2022/05/03 03:34:57;;;;;;;15.18;3.97;;;15.50;75.00;;;;;;5055622;28;20061;-68
2022/05/03 03:37:27;;;;;;;6.47;3.60;;;15.50;74.60;;;;;;5055414;28;20460;-66
2022/05/03 03:39:52;;;;;;;9.70;3.85;;;15.50;74.40;;;;;;5055024;28;20588;-66
2022/05/03 03:42:19;;;;;;;6.00;3.47;;;15.50;74.80;;;;;;5055363;28;20116;-66
2022/05/03 03:44:46;;;;;;;10.02;3.70;;;15.50;76.00;;;;;;5055207;28;20094;-66
2022/05/03 03:47:13;;;;;;;5.57;3.88;;;15.50;75.70;;;;;;5054886;28;20390;-69
2022/05/03 03:49:38;;;;;;;5.88;3.45;;;15.40;74.60;;;;;;5054966;28;20044;-66
2022/05/03 03:52:07;;;;;;;6.35;3.60;;;15.40;74.20;;;;;;5054966;28;20032;-68
2022/05/03 03:54:33;;;;;;;10.75;3.70;;;15.50;73.90;;;;;;5055029;28;20044;-69
2022/05/03 03:57:00;;;;;;;7.78;3.60;;;15.40;73.60;;;;;;5054677;28;20029;-66
2022/05/03 03:59:30;;;;;;;7.28;3.67;;;15.40;73.70;;;;;;5054777;28;20047;-65
2022/05/03 04:01:57;;;;;;;7.47;3.03;;;15.50;73.80;;;;;;5054845;28;20036;-68
2022/05/03 04:04:27;;;;;;;9.10;3.70;;;15.40;73.60;;;;;;5054591;28;20048;-67
2022/05/03 04:06:53;;;;;;;4.72;3.00;;;15.40;74.10;;;;;;5054222;28;20131;-67
2022/05/03 04:09:19;;;;;;;4.43;3.15;;;15.40;73.90;;;;;;5054872;28;20529;-68
2022/05/03 04:11:46;;;;;;;8.30;3.55;;;15.40;74.70;;;;;;5054859;28;20061;-66
2022/05/03 04:14:12;;;;;;;7.57;3.42;;;15.40;74.70;;;;;;5054319;28;20382;-65
2022/05/03 04:16:38;;;;;;;7.30;4.15;;;15.40;74.70;;;;;;5053758;28;20044;-66
2022/05/03 04:19:04;;;;;;;4.63;3.50;;;15.30;74.90;;;;;;5053787;28;20044;-65
2022/05/03 04:21:30;;;;;;;5.43;3.78;;;15.30;75.40;;;;;;5054448;28;20492;-66
2022/05/03 04:23:55;;;;;;;4.47;3.30;;;15.30;75.80;;;;;;5054308;28;20068;-66
2022/05/03 04:26:21;;;;;;;8.25;4.00;;;15.30;75.70;;;;;;5054428;28;20033;-66
2022/05/03 04:28:47;;;;;;;7.95;3.65;;;15.30;75.40;;;;;;5054158;28;20044;-65
2022/05/03 04:31:12;;;;;;;7.53;4.25;;;15.30;75.10;;;;;;5054112;28;20029;-67
2022/05/03 04:33:38;;;;;;;12.07;4.00;;;15.30;75.30;;;;;;5054079;28;20036;-66
2022/05/03 04:36:04;;;;;;;5.78;3.38;;;15.30;75.20;;;;;;5053773;28;20029;-65
2022/05/03 04:38:30;;;;;;;9.60;3.25;;;15.30;75.10;;;;;;5053917;28;20041;-67
2022/05/03 04:41:02;;;;;;;5.95;3.65;;;15.40;75.00;;;;;;5054113;28;20105;-67
2022/05/03 04:43:29;;;;;;;5.30;3.40;;;15.40;74.90;;;;;;5053955;28;20060;-64
2022/05/03 04:45:54;;;;;;;13.40;3.85;;;15.40;74.50;;;;;;5053979;28;20040;-65
2022/05/03 04:48:20;;;;;;;6.88;3.05;;;15.40;75.00;;;;;;5054036;28;20044;-67
2022/05/03 04:50:47;;;;;;;9.23;3.35;;;15.40;74.20;;;;;;5053647;28;20385;-68
2022/05/03 04:53:16;;;;;;;8.43;3.38;;;15.40;74.70;;;;;;5053772;28;20040;-67
2022/05/03 04:55:42;;;;;;;7.35;3.70;;;15.40;75.60;;;;;;5053679;28;20033;-67
2022/05/03 04:58:08;;;;;;;7.78;3.35;;;15.40;75.80;;;;;;5053327;28;20049;-65
2022/05/03 05:00:34;;;;;;;10.02;3.90;;;15.40;77.40;;;;;;5053765;28;20064;-68
2022/05/03 05:03:00;;;;;;;13.55;4.75;;;15.40;76.80;;;;;;5053313;28;20041;-64
2022/05/03 05:05:25;;;;;;;8.18;3.75;;;15.40;77.00;;;;;;5053791;28;20030;-64
2022/05/03 05:07:51;;;;;;;5.28;3.80;;;15.40;76.90;;;;;;5053659;28;20048;-64
2022/05/03 05:10:29;;;;;;;8.55;3.40;;;15.40;76.90;;;;;;5053618;28;20041;-64
2022/05/03 05:12:55;;;;;;;10.60;3.58;;;15.40;76.90;;;;;;5053724;28;20043;-67
2022/05/03 05:15:25;;;;;;;9.27;3.53;;;15.40;76.90;;;;;;5053167;28;20033;-64
2022/05/03 05:17:52;;;;;;;5.05;3.00;;;15.50;77.10;;;;;;5053128;28;20045;-67
2022/05/03 05:20:19;;;;;;;7.20;3.42;;;15.50;77.00;;;;;;5053188;28;20139;-65
2022/05/03 05:22:45;;;;;;;8.80;3.67;;;15.50;76.80;;;;;;5053170;28;20045;-65
2022/05/03 05:25:11;;;;;;;29.65;5.50;;;15.60;77.90;;;;;;5053071;28;20037;-64
2022/05/03 05:27:37;;;;;;;6.07;3.35;;;15.60;77.70;;;;;;5052725;28;20037;-65
2022/05/03 05:30:04;;;;;;;5.85;3.35;;;15.70;77.50;;;;;;5052990;28;20405;-65
2022/05/03 05:32:30;;;;;;;11.93;3.85;;;15.70;77.10;;;;;;5052773;28;20404;-65
2022/05/03 05:34:56;;;;;;;10.18;3.45;;;15.70;76.80;;;;;;5053196;28;20148;-65
2022/05/03 05:37:21;;;;;;;9.45;3.75;;;15.80;77.20;;;;;;5052103;28;20041;-65
2022/05/03 05:39:47;;;;;;;13.30;3.35;;;15.80;77.70;;;;;;5052391;28;20041;-65
2022/05/03 05:42:13;;;;;;;6.80;3.55;;;15.80;77.90;;;;;;5052558;28;20057;-65
2022/05/03 05:44:39;;;;;;;10.02;2.97;;;15.90;77.40;;;;;;5052748;28;20040;-64
2022/05/03 05:47:05;;;;;;;5.82;2.60;;;15.90;76.20;;;;;;5052507;28;20120;-65
2022/05/03 05:49:31;;;;;;;8.82;2.75;;;16.00;74.40;;;;;;5033754;28;20041;-65
2022/05/03 05:53:31;;;;;;;7.93;2.50;;;16.10;73.30;;;;;;5051513;28;20044;-64
2022/05/03 05:54:43;;;;;;;5.57;2.58;;;16.10;72.50;;;;;;5052318;28;20083;-64
2022/05/03 05:57:09;;;;;;;6.40;2.63;;;16.20;72.70;;;;;;5052551;28;20075;-64
2022/05/03 05:59:34;;;;;;;15.05;3.28;;;16.30;72.20;;;;;;5052554;28;20127;-65
2022/05/03 06:02:00;;;;;;;10.10;2.58;;;16.30;72.10;;;;;;5052718;28;20063;-65
2022/05/03 06:04:29;;;;;;;4.95;2.47;;;16.40;71.70;;;;;;5051845;28;20037;-65
2022/05/03 06:06:55;;;;;;;4.15;2.58;;;16.50;70.70;;;;;;5051527;28;20033;-63
2022/05/03 06:09:21;;;;;;;6.32;2.28;;;16.60;70.40;;;;;;5050499;28;20060;-65
2022/05/03 06:11:47;;;;;;;4.95;2.20;;;16.60;70.00;;;;;;5050572;28;20033;-66
2022/05/03 06:14:12;;;;;;;8.38;2.60;;;16.70;69.80;;;;;;5051955;28;20040;-63
2022/05/03 06:16:56;;;;;;;10.60;2.85;;;16.80;69.50;;;;;;5024999;28;20053;-65
2022/05/03 06:19:22;;;;;;;3.92;2.40;;;16.80;68.90;;;;;;5051696;28;20585;-65
2022/05/03 06:21:48;;;;;;;5.20;2.40;;;16.90;68.40;;;;;;5052008;28;20592;-64
2022/05/03 06:24:14;;;;;;;6.57;2.05;;;16.90;68.90;;;;;;5051378;28;20045;-65
2022/05/03 06:26:40;;;;;;;6.90;2.10;;;17.00;68.10;;;;;;5051148;28;20033;-64
2022/05/03 06:29:08;;;;;;;8.43;2.45;;;17.00;68.00;;;;;;5051811;28;20223;-64
2022/05/03 06:31:37;;;;;;;7.85;2.30;;;17.10;67.80;;;;;;5051130;28;20044;-64
2022/05/03 06:34:03;;;;;;;4.75;2.00;;;17.10;68.10;;;;;;5051440;28;20548;-65
2022/05/03 06:36:29;;;;;;;8.18;2.60;;;17.10;67.80;;;;;;5051967;28;20037;-64
2022/05/03 06:38:55;;;;;;;4.60;2.47;;;17.10;68.00;;;;;;5051922;28;20396;-63
2022/05/03 06:41:21;;;;;;;8.60;2.67;;;17.20;67.90;;;;;;5054158;28;20033;-64
2022/05/03 06:43:46;;;;;;;4.72;2.30;;;17.30;67.80;;;;;;5055930;28;20084;-64
2022/05/03 06:46:13;;;;;;;6.93;2.47;;;17.30;66.60;;;;;;5055836;28;20056;-64
2022/05/03 06:48:39;;;;;;;4.32;2.13;;;17.30;65.60;;;;;;5055928;28;20448;-64
2022/05/03 06:51:07;;;;;;;5.43;2.00;;;17.40;65.60;;;;;;5054607;28;20108;-64
2022/05/03 06:53:33;;;;;;;4.55;2.00;;;17.50;65.20;;;;;;5054646;28;20037;-67
2022/05/03 06:55:59;;;;;;;4.72;1.98;;;17.60;65.00;;;;;;5055629;28;20032;-64
2022/05/03 06:58:25;;;;;;;8.10;1.90;;;17.60;63.50;;;;;;5055780;28;20123;-65
2022/05/03 07:00:50;;;;;;;6.45;2.60;;;17.70;63.40;;;;;;5055702;28;20473;-64
2022/05/03 07:03:19;;;;;;;4.45;2.28;;;17.80;64.40;;;;;;5055453;28;20088;-63
2022/05/03 07:05:45;;;;;;;4.88;2.10;;;17.80;63.10;;;;;;5055523;28;20036;-66
2022/05/03 07:08:11;;;;;;;6.10;2.35;;;17.80;62.60;;;;;;5052885;28;20045;-64
2022/05/03 07:10:38;;;;;;;9.18;2.17;;;17.90;63.10;;;;;;5052488;28;20653;-65
2022/05/03 07:13:04;;;;;;;3.88;1.85;;;18.00;63.60;;;;;;5052895;28;20045;-65
2022/05/03 07:15:30;;;;;;;2.70;1.67;;;18.10;63.90;;;;;;5055342;28;20393;-64
2022/05/03 07:23:26;;;;;;;2.40;1.80;;;18.30;60.80;;;;;;5055336;28;20558;-64
2022/05/03 07:25:53;;;;;;;8.02;1.60;;;18.30;61.80;;;;;;5054777;28;20804;-65
2022/05/03 07:28:18;;;;;;;4.43;1.92;;;18.40;62.10;;;;;;5052775;28;20121;-65
2022/05/03 07:30:44;;;;;;;5.80;1.88;;;18.50;60.80;;;;;;5052702;28;20120;-65
2022/05/03 07:33:10;;;;;;;5.85;1.73;;;18.60;60.50;;;;;;5055143;28;20033;-65
2022/05/03 07:35:35;;;;;;;5.28;1.58;;;18.60;60.10;;;;;;5055017;28;20537;-64
2022/05/03 07:38:01;;;;;;;4.13;1.58;;;18.70;60.30;;;;;;5054826;28;20095;-65
2022/05/03 07:40:28;;;;;;;5.13;1.60;;;18.70;59.50;;;;;;5055021;28;20037;-65
2022/05/03 07:42:54;;;;;;;3.13;1.83;;;18.80;59.00;;;;;;5055041;28;20033;-66
2022/05/03 07:45:20;;;;;;;3.38;1.85;;;18.90;58.40;;;;;;5055062;28;20037;-64
2022/05/03 07:47:46;;;;;;;5.15;1.60;;;18.90;58.30;;;;;;5055110;28;20108;-64
2022/05/03 07:50:11;;;;;;;10.13;1.80;;;18.90;58.70;;;;;;5052975;28;20029;-65
2022/05/03 07:52:38;;;;;;;3.30;1.80;;;18.90;58.60;;;;;;5053441;28;20496;-64
2022/05/03 07:55:06;;;;;;;5.80;1.65;;;19.00;57.10;;;;;;5053729;28;20512;-67
2022/05/03 07:57:32;;;;;;;4.85;1.60;;;19.00;57.40;;;;;;5054921;28;20029;-64
2022/05/03 07:59:58;;;;;;;7.93;1.60;;;19.00;57.60;;;;;;5054896;28;20155;-65
2022/05/03 08:02:25;;;;;;;4.53;1.73;;;19.00;56.50;;;;;;5054821;28;20059;-64
2022/05/03 08:04:54;;;;;;;3.08;1.77;;;19.00;58.00;;;;;;5054773;28;20033;-67
2022/05/03 08:07:21;;;;;;;2.63;1.63;;;19.10;57.90;;;;;;5054803;28;20030;-64
2022/05/03 08:09:48;;;;;;;2.75;1.50;;;19.10;57.00;;;;;;5055123;28;20056;-64
2022/05/03 08:12:14;;;;;;;3.65;1.58;;;19.20;57.00;;;;;;5054845;28;20044;-64
2022/05/03 08:14:40;;;;;;;2.80;1.88;;;19.20;56.30;;;;;;5054759;28;20041;-64
2022/05/03 08:17:07;;;;;;;5.20;1.58;;;19.20;56.40;;;;;;5052853;28;20108;-64
2022/05/03 08:19:32;;;;;;;4.07;1.50;;;19.30;54.40;;;;;;5051467;28;20059;-65
2022/05/03 08:21:58;;;;;;;6.05;1.80;;;19.30;54.10;;;;;;5051751;28;20037;-65
2022/05/03 08:24:25;;;;;;;2.88;1.40;;;19.30;53.30;;;;;;5053570;28;20547;-64
2022/05/03 08:26:50;;;;;;;3.15;1.60;;;19.40;52.70;;;;;;5054321;28;20035;-64
2022/05/03 08:29:16;;;;;;;4.78;1.60;;;19.50;53.00;;;;;;5054863;28;20029;-65
2022/05/03 08:31:42;;;;;;;4.38;1.60;;;19.60;51.60;;;;;;5054127;28;20607;-64
2022/05/03 08:34:09;;;;;;;3.88;1.73;;;19.60;50.70;;;;;;5054411;28;20033;-64
2022/05/03 08:36:34;;;;;;;8.98;1.95;;;19.70;51.60;;;;;;5054198;28;20041;-64
2022/05/03 08:42:06;;;;;;;3.88;1.40;;;19.80;53.10;;;;;;5052945;28;20044;-64
2022/05/03 08:44:32;;;;;;;4.80;1.60;;;19.80;53.10;;;;;;5051057;28;20064;-65
2022/05/03 08:47:02;;;;;;;3.85;1.60;;;19.90;50.20;;;;;;5052161;28;20100;-64
2022/05/03 08:49:59;;;;;;;5.25;1.70;;;20.00;51.50;;;;;;5054071;28;20544;-65
2022/05/03 08:52:28;;;;;;;7.10;1.67;;;20.10;51.30;;;;;;5053799;28;20132;-66
2022/05/03 08:54:55;;;;;;;7.03;1.67;;;20.10;52.60;;;;;;5053809;28;20041;-66
2022/05/03 08:57:21;;;;;;;6.07;1.80;;;20.20;50.00;;;;;;5053519;28;20029;-66
2022/05/03 08:59:50;;;;;;;7.32;1.55;;;20.30;48.10;;;;;;5053404;28;20079;-66
2022/05/03 09:02:16;;;;;;;3.75;1.55;;;20.30;47.40;;;;;;5053555;28;20028;-65
2022/05/03 09:04:42;;;;;;;3.92;1.95;;;20.40;49.30;;;;;;5053082;28;20538;-65
2022/05/03 09:07:25;;;;;;;5.13;1.83;;;20.40;49.70;;;;;;5053793;28;20028;-65
2022/05/03 09:09:51;;;;;;;;;;;20.50;48.30;;;;;;5054346;28;20041;-65
2022/05/03 09:12:29;;;;;;;4.30;1.70;;;20.50;49.00;;;;;;5053476;28;19908;-65
2022/05/03 09:15:01;;;;;;;5.22;1.80;;;20.50;49.00;;;;;;5052149;28;20033;-65
2022/05/03 09:17:45;;;;;;;6.90;1.60;;;20.60;51.00;;;;;;5052334;28;20128;-66
2022/05/03 09:26:17;;;;;;;3.28;1.73;;;20.60;49.30;;;;;;5050486;28;20143;-65
2022/05/03 09:29:08;;;;;;;3.22;1.70;;;20.60;50.60;;;;;;5052985;28;20036;-64
2022/05/03 09:31:41;;;;;;;2.03;1.70;;;20.60;50.10;;;;;;5038066;28;20033;-64
2022/05/03 09:34:26;;;;;;;2.33;1.50;;;20.60;50.20;;;;;;5052877;28;20413;-64
2022/05/03 09:37:07;;;;;;;5.35;1.50;;;20.70;51.90;;;;;;5052927;28;20037;-65
2022/05/03 09:39:38;;;;;;;4.18;1.60;;;20.80;51.30;;;;;;5053063;28;20052;-64
2022/05/03 09:42:14;;;;;;;3.08;1.30;;;20.90;51.10;;;;;;5053016;28;20037;-64
2022/05/03 09:44:52;;;;;;;2.42;1.48;;;21.00;50.80;;;;;;5051211;28;20048;-64
2022/05/03 09:47:20;;;;;;;6.10;1.48;;;21.00;49.40;;;;;;5052300;28;20513;-64
2022/05/03 09:49:46;;;;;;;7.55;1.80;;;21.00;49.40;;;;;;5052881;28;20061;-64
2022/05/03 09:52:30;;;;;;;3.00;1.48;;;20.90;49.70;;;;;;5053013;28;20040;-64
2022/05/03 09:55:03;;;;;;;6.10;1.85;;;20.90;48.10;;;;;;5052853;28;20052;-64
2022/05/03 09:57:31;;;;;;;3.55;2.00;;;20.90;48.30;;;;;;5052718;28;20087;-64
2022/05/03 09:59:58;;;;;;;3.17;1.42;;;20.90;48.90;;;;;;5052989;28;20055;-64
2022/05/03 10:02:27;;;;;;;8.10;1.80;;;20.80;49.30;;;;;;5052936;28;20029;-64
2022/05/03 10:04:56;;;;;;;3.95;1.83;;;20.80;49.30;;;;;;5052856;28;20036;-63
2022/05/03 10:07:23;;;;;;;3.65;1.70;;;20.80;49.70;;;;;;5052695;28;20052;-65
2022/05/03 10:09:49;;;;;;;4.38;1.60;;;20.80;48.00;;;;;;5053076;28;20428;-64
2022/05/03 10:12:16;;;;;;;6.13;1.60;;;20.80;48.60;;;;;;5052966;28;20036;-64
2022/05/03 10:14:44;;;;;;;4.05;1.75;;;20.80;48.60;;;;;;5052754;28;20044;-64
2022/05/03 10:20:46;;;;;;;5.53;1.85;;;20.80;49.30;;;;;;5057096;28;20055;-64
2022/05/03 10:23:28;;;;;;;3.53;1.77;;;20.70;49.60;;;;;;5056142;28;20053;-64
2022/05/03 10:25:56;;;;;;;2.90;1.50;;;20.70;50.70;;;;;;5056361;28;20063;-62
2022/05/03 10:28:22;;;;;;;8.13;1.92;;;20.70;50.30;;;;;;5055991;28;20055;-63
2022/05/03 10:31:06;;;;;;;6.07;2.08;;;20.80;50.10;;;;;;5056159;28;20412;-64
2022/05/03 10:33:32;;;;;;;4.25;1.80;;;20.80;50.30;;;;;;5055901;28;20111;-63
2022/05/03 10:35:59;;;;;;;7.75;1.83;;;21.00;51.30;;;;;;5055547;28;20580;-64
2022/05/03 10:38:44;;;;;;;4.28;1.55;;;21.10;52.10;;;;;;5055771;28;20442;-64
2022/05/03 10:41:13;;;;;;;4.60;1.80;;;21.30;49.00;;;;;;5055153;28;20037;-63
2022/05/03 10:43:39;;;;;;;6.20;1.90;;;21.50;46.60;;;;;;5055632;28;20033;-64
2022/05/03 10:46:20;;;;;;;5.93;1.80;;;21.70;48.30;;;;;;5055398;28;20076;-64
2022/05/03 10:49:09;;;;;;;3.13;1.63;;;21.80;48.60;;;;;;5055636;28;20477;-64
2022/05/03 10:51:35;;;;;;;2.10;1.65;;;21.80;47.00;;;;;;5055936;28;20059;-67
2022/05/03 10:54:03;;;;;;;8.38;1.60;;;21.90;47.10;;;;;;5055924;28;20086;-64
2022/05/03 10:56:29;;;;;;;7.00;1.75;;;22.00;46.30;;;;;;5055511;28;20025;-64
2022/05/03 10:59:10;;;;;;;2.47;1.65;;;22.00;45.40;;;;;;5054837;28;20490;-64
2022/05/03 11:01:57;;;;;;;4.40;1.40;;;22.00;45.70;;;;;;5054980;28;20132;-64
2022/05/03 11:04:24;;;;;;;5.53;1.70;;;22.00;45.40;;;;;;5056008;28;20119;-64
2022/05/03 11:06:50;;;;;;;4.22;1.85;;;22.00;46.60;;;;;;5055864;28;20029;-64
2022/05/03 11:09:30;;;;;;;5.07;1.83;;;21.90;44.20;;;;;;5055543;28;20103;-63
2022/05/03 11:11:58;;;;;;;5.45;1.90;;;21.90;41.10;;;;;;5055662;28;20379;-63
2022/05/03 11:14:26;;;;;;;6.55;1.75;;;21.90;44.10;;;;;;5055468;28;20060;-64
2022/05/03 11:17:09;;;;;;;3.40;1.60;;;21.80;44.90;;;;;;5055605;28;20123;-63
2022/05/03 11:19:35;;;;;;;;;;;21.80;45.40;;;;;;5055563;28;20033;-64
2022/05/03 11:22:01;;;;;;;3.35;1.70;;;21.80;44.40;;;;;;5055188;28;20273;-64
2022/05/03 11:24:31;;;;;;;5.53;2.17;;;21.80;44.70;;;;;;5054289;28;20366;-64
2022/05/03 11:26:57;;;;;;;3.05;1.42;;;21.80;44.40;;;;;;5053900;28;20064;-64
2022/05/03 11:29:29;;;;;;;4.30;1.50;;;21.90;43.90;;;;;;5053310;28;20040;-64
2022/05/03 11:31:55;;;;;;;8.57;1.60;;;22.10;45.30;;;;;;5054211;28;20037;-64
2022/05/03 11:34:21;;;;;;;4.65;1.77;;;22.30;44.70;;;;;;5055250;28;20037;-64
2022/05/03 11:36:50;;;;;;;6.63;1.70;;;22.50;44.20;;;;;;5055405;28;20562;-64
2022/05/03 11:39:17;;;;;;;4.93;1.77;;;22.60;44.50;;;;;;5054981;28;20048;-64
2022/05/03 11:41:43;;;;;;;2.88;1.80;;;22.80;43.80;;;;;;5055416;28;20033;-63
2022/05/03 11:44:10;;;;;;;4.68;1.70;;;23.00;44.20;;;;;;5055032;28;20379;-64
2022/05/03 11:46:37;;;;;;;4.35;1.65;;;23.20;42.40;;;;;;5055149;28;20029;-63
2022/05/03 11:49:06;;;;;;;6.35;1.85;;;23.30;41.80;;;;;;5054908;28;20037;-63
2022/05/03 11:57:23;;;;;;;5.32;1.52;;;23.60;40.20;;;;;;5054337;28;20044;-63
2022/05/03 11:59:51;;;;;;;4.97;1.83;;;23.70;40.20;;;;;;5052205;28;20055;-65
2022/05/03 12:02:21;;;;;;;3.90;1.85;;;23.80;40.80;;;;;;5051974;28;20044;-64
2022/05/03 12:05:04;;;;;;;8.18;1.73;;;23.90;39.20;;;;;;5053700;28;20401;-64
2022/05/03 12:07:36;;;;;;;3.38;1.60;;;24.00;40.20;;;;;;5054688;28;20037;-62
2022/05/03 12:10:14;;;;;;;;;;;24.10;40.40;;;;;;5054391;28;20071;-65
2022/05/03 12:12:43;;;;;;;4.18;1.60;;;24.30;40.90;;;;;;5054058;28;19951;-64
2022/05/03 12:15:19;;;;;;;9.65;2.03;;;24.40;40.30;;;;;;5054221;28;20075;-64
2022/05/03 12:18:11;;;;;;;3.67;1.67;;;24.50;37.70;;;;;;5053585;28;20099;-64
2022/05/03 12:20:44;;;;;;;1.85;1.38;;;24.60;38.60;;;;;;5053514;28;20037;-64
2022/05/03 12:23:16;;;;;;;3.65;1.52;;;24.70;40.70;;;;;;5052772;28;20063;-64
2022/05/03 12:25:43;;;;;;;5.10;1.63;;;24.70;38.70;;;;;;5051650;28;20473;-65
2022/05/03 12:28:09;;;;;;;3.50;1.55;;;24.80;39.00;;;;;;5051566;28;20036;-65
2022/05/03 12:30:35;;;;;;;2.35;1.48;;;24.90;39.10;;;;;;5051358;28;20037;-65
2022/05/03 12:33:07;;;;;;;2.30;1.40;;;24.90;38.50;;;;;;5051580;28;20029;-65
2022/05/03 12:35:35;;;;;;;3.65;1.67;;;25.00;38.40;;;;;;5052921;28;20033;-65
2022/05/03 12:38:09;;;;;;;3.03;1.67;;;25.10;38.50;;;;;;5053173;28;20045;-66
2022/05/03 12:40:51;;;;;;;4.53;1.52;;;25.20;37.60;;;;;;5054299;28;20037;-66
2022/05/03 12:43:20;;;;;;;4.18;1.65;;;25.30;35.60;;;;;;5052106;28;20369;-64
2022/05/03 12:46:05;;;;;;;2.92;1.50;;;25.30;36.50;;;;;;5052820;28;20098;-64
2022/05/03 12:48:35;;;;;;;2.65;1.58;;;25.30;37.20;;;;;;5056562;28;20039;-65
2022/05/03 12:51:01;;;;;;;3.25;1.40;;;25.40;37.70;;;;;;5071841;28;20029;-65
2022/05/03 12:53:32;;;;;;;3.25;1.60;;;25.50;38.70;;;;;;5070365;28;20488;-67
2022/05/03 12:58:44;;;;;;;4.95;1.50;;;25.70;37.10;;;;;;5072641;28;20132;-64
2022/05/03 13:01:11;;;;;;;5.03;1.50;;;25.70;37.70;;;;;;5073462;28;20108;-64
2022/05/03 13:03:37;;;;;;;2.13;1.50;;;25.80;36.20;;;;;;5073461;28;20040;-64
2022/05/03 13:06:03;;;;;;;5.20;1.73;;;25.80;35.10;;;;;;5073409;28;20039;-64
2022/05/03 13:08:29;;;;;;;3.00;1.52;;;25.80;35.80;;;;;;5073179;28;20115;-64
2022/05/03 13:10:54;;;;;;;3.22;1.50;;;25.80;36.00;;;;;;5073328;28;20434;-63
2022/05/03 13:13:21;;;;;;;10.10;1.67;;;25.80;34.80;;;;;;5073177;28;20044;-64
2022/05/03 13:15:47;;;;;;;4.82;1.15;;;25.80;34.20;;;;;;5073293;28;20111;-64
2022/05/03 13:18:12;;;;;;;3.33;1.50;;;25.60;34.90;;;;;;5073340;28;20135;-63
2022/05/03 13:20:39;;;;;;;5.25;1.40;;;25.50;35.50;;;;;;5073083;28;20067;-63
2022/05/03 13:23:04;;;;;;;7.05;1.77;;;25.30;36.20;;;;;;5072725;28;20481;-65
2022/05/03 13:25:30;;;;;;;3.22;1.67;;;25.30;36.10;;;;;;5073136;28;20115;-65
2022/05/03 13:27:56;;;;;;;3.13;1.35;;;25.30;36.80;;;;;;5073247;28;20370;-66
2022/05/03 13:30:23;;;;;;;4.10;1.52;;;25.30;36.70;;;;;;5072890;28;20021;-65
2022/05/03 13:32:49;;;;;;;1.90;1.40;;;25.40;36.90;;;;;;5072900;28;20071;-66
2022/05/03 13:35:14;;;;;;;3.50;1.55;;;25.50;39.80;;;;;;5073012;28;20068;-65
2022/05/03 13:40:44;;;;;;;4.75;1.50;;;25.70;38.30;;;;;;5011090;28;20545;-66
2022/05/03 13:43:09;;;;;;;2.42;1.40;;;25.80;39.10;;;;;;5010562;28;20034;-67